createdAt,value
2018-05-02T00:00:01.558Z,94.60
2018-05-02T00:02:35.148Z,94.60
2018-05-02T00:05:08.715Z,95.00
2018-05-02T00:07:42.244Z,95.00
2018-05-02T00:10:15.855Z,95.10
2018-05-02T00:12:49.421Z,95.10
2018-05-02T00:15:23.784Z,95.00
2018-05-02T00:17:58.214Z,95.00
2018-05-02T00:20:31.792Z,95.00
2018-05-02T00:23:06.110Z,95.40
2018-05-02T00:25:39.844Z,95.40
2018-05-02T00:28:13.427Z,95.30
2018-05-02T00:30:47.725Z,95.00
2018-05-02T00:33:21.404Z,95.00
2018-05-02T00:35:54.892Z,94.50
2018-05-02T00:38:28.512Z,94.20
2018-05-02T00:41:02.206Z,94.20
2018-05-02T00:43:35.722Z,94.00
2018-05-02T00:46:09.233Z,93.80
2018-05-02T00:48:54.899Z,93.50
2018-05-02T00:51:31.876Z,93.70
2018-05-02T00:54:05.461Z,93.50
2018-05-02T00:56:38.998Z,93.60
2018-05-02T00:59:12.517Z,93.60
2018-05-02T01:01:46.810Z,93.60
2018-05-02T01:04:20.499Z,93.60
2018-05-02T01:06:54.102Z,94.00
2018-05-02T01:09:27.591Z,93.90
2018-05-02T01:12:01.233Z,93.70
2018-05-02T01:14:34.745Z,93.60
2018-05-02T01:17:09.039Z,93.40
2018-05-02T01:19:42.533Z,93.40
2018-05-02T01:22:16.161Z,93.20
2018-05-02T01:24:49.659Z,93.30
2018-05-02T01:27:23.218Z,93.10
2018-05-02T01:29:56.751Z,93.20
2018-05-02T01:32:31.043Z,93.20
2018-05-02T01:35:04.732Z,93.20
2018-05-02T01:37:38.956Z,93.10
2018-05-02T01:40:20.918Z,93.10
2018-05-02T01:42:54.468Z,93.10
2018-05-02T01:45:28.870Z,93.30
2018-05-02T01:48:02.460Z,93.20
2018-05-02T01:50:36.015Z,93.40
2018-05-02T01:53:09.570Z,93.70
2018-05-02T01:55:43.192Z,93.20
2018-05-02T01:58:16.747Z,93.20
2018-05-02T02:00:50.275Z,93.20
2018-05-02T02:03:23.872Z,93.40
2018-05-02T02:05:57.440Z,93.30
2018-05-02T02:08:31.065Z,93.20
2018-05-02T02:11:04.604Z,93.10
2018-05-02T02:13:38.172Z,93.10
2018-05-02T02:16:12.494Z,93.10
2018-05-02T02:18:46.015Z,93.00
2018-05-02T02:21:19.564Z,93.30
2018-05-02T02:23:53.897Z,93.70
2018-05-02T02:26:27.700Z,93.20
2018-05-02T02:29:01.213Z,93.10
2018-05-02T02:31:34.777Z,93.00
2018-05-02T02:34:08.493Z,92.90
2018-05-02T02:36:42.635Z,92.90
2018-05-02T02:39:17.055Z,92.90
2018-05-02T02:41:50.754Z,92.90
2018-05-02T02:44:25.059Z,92.70
2018-05-02T02:46:58.814Z,92.40
2018-05-02T02:49:32.353Z,92.40
2018-05-02T02:52:05.995Z,92.50
2018-05-02T02:54:39.528Z,92.40
2018-05-02T02:57:13.959Z,92.40
2018-05-02T02:59:47.566Z,92.40
2018-05-02T03:02:21.120Z,92.30
2018-05-02T03:04:54.703Z,92.30
2018-05-02T03:07:28.308Z,92.50
2018-05-02T03:10:01.871Z,92.50
2018-05-02T03:12:35.417Z,92.60
2018-05-02T03:15:09.005Z,92.80
2018-05-02T03:17:42.569Z,92.70
2018-05-02T03:20:16.082Z,92.70
2018-05-02T03:22:49.608Z,92.90
2018-05-02T03:25:23.197Z,92.90
2018-05-02T03:27:56.788Z,93.00
2018-05-02T03:30:31.113Z,93.40
2018-05-02T03:33:04.613Z,93.40
2018-05-02T03:35:38.924Z,94.10
2018-05-02T03:38:12.664Z,94.00
2018-05-02T03:40:46.212Z,94.00
2018-05-02T03:43:19.806Z,94.00
2018-05-02T03:45:53.423Z,93.90
2018-05-02T03:48:27.029Z,94.50
2018-05-02T03:51:00.613Z,94.40
2018-05-02T03:53:34.963Z,94.00
2018-05-02T03:56:08.532Z,94.00
2018-05-02T03:58:42.165Z,94.80
2018-05-02T04:01:27.754Z,95.00
2018-05-02T04:04:13.381Z,95.70
2018-05-02T04:09:47.073Z,95.90
2018-05-02T04:12:20.864Z,96.00
2018-05-02T04:14:54.387Z,95.80
2018-05-02T04:17:27.919Z,95.70
2018-05-02T04:20:02.248Z,95.80
2018-05-02T04:22:35.833Z,95.50
2018-05-02T04:25:09.401Z,95.50
2018-05-02T04:27:42.967Z,95.20
2018-05-02T04:30:16.549Z,95.50
2018-05-02T04:32:50.887Z,95.50
2018-05-02T04:35:24.409Z,95.50
2018-05-02T04:37:57.977Z,95.40
2018-05-02T04:40:31.580Z,95.70
2018-05-02T04:43:05.111Z,96.10
2018-05-02T04:45:39.396Z,95.40
2018-05-02T04:48:16.694Z,95.40
2018-05-02T04:50:50.273Z,95.40
2018-05-02T04:53:24.605Z,95.20
2018-05-02T04:55:58.216Z,95.20
2018-05-02T04:58:31.772Z,95.10
2018-05-02T05:01:05.425Z,95.10
2018-05-02T05:03:39.920Z,94.90
2018-05-02T05:06:14.237Z,95.40
2018-05-02T05:08:47.846Z,95.00
2018-05-02T05:11:21.487Z,94.90
2018-05-02T05:13:55.973Z,94.30
2018-05-02T05:16:29.807Z,94.30
2018-05-02T05:19:03.356Z,94.10
2018-05-02T05:21:36.871Z,93.30
2018-05-02T05:24:10.427Z,93.40
2018-05-02T05:26:44.791Z,93.30
2018-05-02T05:29:19.207Z,93.30
2018-05-02T05:31:52.913Z,93.30
2018-05-02T05:34:26.507Z,93.00
2018-05-02T05:37:00.048Z,93.00
2018-05-02T05:39:33.619Z,93.00
2018-05-02T05:42:07.207Z,92.90
2018-05-02T05:44:40.810Z,93.30
2018-05-02T05:47:15.132Z,93.00
2018-05-02T05:49:48.825Z,92.90
2018-05-02T05:52:22.334Z,93.10
2018-05-02T05:54:55.979Z,92.50
2018-05-02T05:57:29.806Z,92.40
2018-05-02T06:00:03.594Z,92.70
2018-05-02T06:02:37.262Z,92.40
2018-05-02T06:05:10.927Z,92.30
2018-05-02T06:07:44.651Z,92.40
2018-05-02T06:10:18.252Z,92.50
2018-05-02T06:12:51.846Z,92.50
2018-05-02T06:15:25.590Z,93.00
2018-05-02T06:17:59.215Z,93.70
2018-05-02T06:20:32.862Z,94.00
2018-05-02T06:23:06.416Z,94.40
2018-05-02T06:25:40.740Z,93.40
2018-05-02T06:28:15.101Z,92.80
2018-05-02T06:30:48.600Z,92.70
2018-05-02T06:33:22.174Z,93.60
2018-05-02T06:35:55.741Z,92.60
2018-05-02T06:38:29.284Z,92.30
2018-05-02T06:41:02.799Z,92.40
2018-05-02T06:43:36.483Z,93.10
2018-05-02T06:46:09.876Z,92.90
2018-05-02T06:48:43.489Z,92.80
2018-05-02T06:51:17.016Z,93.30
2018-05-02T06:53:50.729Z,93.30
2018-05-02T06:56:24.276Z,93.20
2018-05-02T06:58:57.885Z,93.70
2018-05-02T07:01:31.492Z,93.60
2018-05-02T07:04:05.815Z,93.90
2018-05-02T07:06:40.227Z,93.90
2018-05-02T07:09:13.975Z,93.80
2018-05-02T07:11:47.661Z,93.90
2018-05-02T07:14:21.975Z,94.10
2018-05-02T07:16:56.479Z,94.80
2018-05-02T07:19:30.112Z,94.80
2018-05-02T07:22:03.703Z,95.30
2018-05-02T07:24:37.259Z,95.40
2018-05-02T07:27:10.797Z,95.60
2018-05-02T07:29:44.361Z,94.70
2018-05-02T07:32:17.979Z,94.10
2018-05-02T07:34:51.795Z,93.60
2018-05-02T07:37:26.211Z,94.50
2018-05-02T07:39:59.790Z,94.50
2018-05-02T07:42:33.402Z,93.90
2018-05-02T07:45:07.012Z,93.90
2018-05-02T07:47:40.543Z,93.70
2018-05-02T07:50:14.137Z,94.30
2018-05-02T07:52:47.705Z,95.10
2018-05-02T07:55:21.241Z,96.50
2018-05-02T07:57:55.727Z,95.50
2018-05-02T08:00:29.502Z,95.50
2018-05-02T08:03:03.234Z,94.70
2018-05-02T08:05:36.994Z,94.30
2018-05-02T08:08:10.572Z,94.00
2018-05-02T08:10:44.122Z,93.80
2018-05-02T08:13:17.674Z,94.10
2018-05-02T08:15:51.387Z,94.80
2018-05-02T08:18:25.024Z,94.80
2018-05-02T08:20:58.543Z,95.70
2018-05-02T08:23:32.876Z,95.90
2018-05-02T08:26:06.549Z,95.90
2018-05-02T08:28:40.884Z,93.40
2018-05-02T08:31:14.507Z,93.30
2018-05-02T08:33:48.808Z,93.20
2018-05-02T08:36:22.388Z,93.20
2018-05-02T08:38:55.959Z,91.50
2018-05-02T08:41:29.532Z,91.70
2018-05-02T08:44:03.107Z,91.90
2018-05-02T08:46:36.703Z,90.80
2018-05-02T08:49:10.191Z,91.00
2018-05-02T08:51:43.780Z,90.60
2018-05-02T08:54:17.323Z,90.90
2018-05-02T08:56:50.905Z,90.70
2018-05-02T08:59:24.478Z,92.00
2018-05-02T09:01:58.180Z,91.30
2018-05-02T09:04:31.811Z,91.00
2018-05-02T09:07:05.331Z,91.90
2018-05-02T09:09:38.887Z,90.80
2018-05-02T09:12:12.487Z,91.30
2018-05-02T09:14:46.890Z,91.50
2018-05-02T09:17:20.666Z,91.50
2018-05-02T09:19:54.253Z,91.30
2018-05-02T09:22:27.827Z,90.70
2018-05-02T09:25:01.361Z,91.60
2018-05-02T09:27:35.748Z,89.50
2018-05-02T09:30:09.439Z,89.50
2018-05-02T09:32:42.995Z,90.00
2018-05-02T09:35:16.544Z,90.40
2018-05-02T09:37:50.128Z,89.00
2018-05-02T09:40:23.677Z,87.60
2018-05-02T09:42:57.963Z,86.50
2018-05-02T09:45:32.296Z,86.10
2018-05-02T09:48:05.974Z,86.00
2018-05-02T09:50:39.607Z,84.30
2018-05-02T09:53:13.909Z,82.10
2018-05-02T09:55:47.523Z,82.00
2018-05-02T09:58:21.313Z,84.30
2018-05-02T10:00:54.814Z,83.30
2018-05-02T10:03:29.135Z,83.40
2018-05-02T10:06:03.559Z,83.20
2018-05-02T10:08:37.918Z,83.10
2018-05-02T10:11:11.549Z,83.20
2018-05-02T10:13:45.086Z,83.90
2018-05-02T10:16:18.678Z,83.10
2018-05-02T10:18:52.986Z,80.70
2018-05-02T10:21:27.619Z,80.00
2018-05-02T10:24:01.332Z,80.00
2018-05-02T10:26:35.585Z,81.60
2018-05-02T10:29:09.218Z,81.60
2018-05-02T10:31:42.828Z,81.10
2018-05-02T10:34:16.374Z,80.40
2018-05-02T10:36:49.944Z,80.80
2018-05-02T10:39:23.529Z,82.00
2018-05-02T10:41:57.839Z,83.80
2018-05-02T10:44:31.514Z,83.60
2018-05-02T10:47:05.051Z,83.60
2018-05-02T10:49:38.664Z,82.40
2018-05-02T10:52:12.199Z,81.80
2018-05-02T10:54:45.737Z,81.70
2018-05-02T10:57:19.481Z,81.10
2018-05-02T10:59:53.065Z,82.30
2018-05-02T11:02:26.561Z,84.80
2018-05-02T11:05:00.174Z,83.00
2018-05-02T11:07:33.699Z,81.90
2018-05-02T11:10:07.246Z,81.50
2018-05-02T11:12:41.579Z,79.50
2018-05-02T11:15:15.301Z,79.50
2018-05-02T11:17:48.880Z,80.70
2018-05-02T11:20:23.204Z,80.10
2018-05-02T11:22:56.881Z,80.10
2018-05-02T11:25:30.419Z,80.00
2018-05-02T11:28:04.008Z,79.40
2018-05-02T11:30:37.564Z,80.80
2018-05-02T11:33:11.110Z,79.70
2018-05-02T11:35:44.680Z,79.20
2018-05-02T11:38:18.205Z,79.00
2018-05-02T11:40:51.773Z,82.10
2018-05-02T11:43:25.308Z,80.30
2018-05-02T11:45:59.628Z,80.50
2018-05-02T11:48:33.243Z,80.30
2018-05-02T11:51:06.803Z,80.20
2018-05-02T11:53:40.410Z,77.20
2018-05-02T11:56:14.023Z,75.30
2018-05-02T11:58:47.733Z,74.40
2018-05-02T12:01:21.307Z,74.80
2018-05-02T12:03:55.647Z,73.90
2018-05-02T12:06:29.173Z,73.80
2018-05-02T12:09:02.731Z,74.00
2018-05-02T12:11:36.341Z,74.60
2018-05-02T12:14:09.934Z,74.60
2018-05-02T12:16:44.251Z,73.70
2018-05-02T12:19:17.966Z,73.60
2018-05-02T12:21:51.630Z,73.20
2018-05-02T12:24:25.136Z,71.10
2018-05-02T12:26:58.759Z,72.10
2018-05-02T12:29:32.585Z,71.30
2018-05-02T12:32:06.981Z,70.50
2018-05-02T12:34:40.501Z,70.50
2018-05-02T12:37:14.045Z,72.70
2018-05-02T12:39:48.497Z,71.50
2018-05-02T12:42:22.208Z,71.50
2018-05-02T12:44:55.732Z,71.50
2018-05-02T12:47:29.296Z,74.30
2018-05-02T12:50:02.831Z,71.70
2018-05-02T12:52:36.435Z,70.10
2018-05-02T12:55:10.009Z,70.00
2018-05-02T12:57:43.716Z,69.40
2018-05-02T13:00:17.292Z,69.00
2018-05-02T13:02:50.828Z,69.20
2018-05-02T13:05:24.384Z,70.20
2018-05-02T13:07:58.732Z,69.20
2018-05-02T13:10:32.481Z,69.20
2018-05-02T13:13:06.021Z,68.70
2018-05-02T13:15:40.020Z,69.80
2018-05-02T13:18:13.634Z,69.80
2018-05-02T13:20:47.144Z,72.80
2018-05-02T13:23:20.689Z,71.60
2018-05-02T13:25:54.163Z,72.90
2018-05-02T13:28:27.720Z,72.30
2018-05-02T13:31:01.328Z,71.10
2018-05-02T13:33:34.901Z,74.90
2018-05-02T13:36:08.456Z,74.80
2018-05-02T13:38:42.746Z,74.20
2018-05-02T13:41:16.344Z,74.00
2018-05-02T13:43:49.917Z,75.00
2018-05-02T13:46:23.559Z,74.10
2018-05-02T13:48:57.879Z,75.00
2018-05-02T13:51:31.481Z,75.00
2018-05-02T13:54:05.057Z,76.40
2018-05-02T13:56:38.574Z,75.40
2018-05-02T13:59:12.287Z,74.50
2018-05-02T14:01:45.869Z,75.00
2018-05-02T14:04:19.455Z,75.90
2018-05-02T14:06:53.069Z,76.40
2018-05-02T14:09:26.666Z,76.70
2018-05-02T14:12:00.207Z,76.60
2018-05-02T14:14:33.779Z,78.20
2018-05-02T14:17:07.374Z,78.80
2018-05-02T14:19:40.912Z,76.60
2018-05-02T14:22:15.401Z,73.80
2018-05-02T14:24:49.138Z,73.80
2018-05-02T14:27:22.640Z,72.70
2018-05-02T14:29:56.174Z,73.90
2018-05-02T14:32:29.815Z,74.80
2018-05-02T14:35:03.384Z,74.40
2018-05-02T14:37:36.938Z,74.60
2018-05-02T14:40:10.591Z,75.30
2018-05-02T14:42:44.260Z,75.10
2018-05-02T14:45:18.709Z,75.60
2018-05-02T14:47:52.651Z,75.60
2018-05-02T14:50:26.273Z,76.20
2018-05-02T14:52:59.913Z,75.70
2018-05-02T14:55:33.586Z,76.80
2018-05-02T14:58:08.062Z,75.00
2018-05-02T15:00:41.723Z,75.00
2018-05-02T15:03:15.356Z,77.50
2018-05-02T15:05:49.679Z,75.70
2018-05-02T15:08:23.360Z,75.60
2018-05-02T15:10:56.918Z,75.40
2018-05-02T15:13:30.481Z,75.00
2018-05-02T15:16:04.803Z,75.60
2018-05-02T15:18:38.516Z,75.40
2018-05-02T15:21:12.085Z,76.00
2018-05-02T15:23:45.631Z,76.30
2018-05-02T15:26:19.129Z,76.60
2018-05-02T15:28:52.685Z,78.40
2018-05-02T15:31:26.303Z,78.00
2018-05-02T15:33:59.901Z,78.30
2018-05-02T15:36:33.484Z,78.90
2018-05-02T15:39:07.003Z,78.90
2018-05-02T15:41:41.316Z,77.90
2018-05-02T15:44:15.052Z,77.90
2018-05-02T15:46:49.332Z,78.80
2018-05-02T15:49:23.063Z,78.20
2018-05-02T15:51:56.627Z,78.10
2018-05-02T15:54:30.256Z,77.40
2018-05-02T15:57:03.954Z,77.50
2018-05-02T15:59:37.545Z,78.40
2018-05-02T16:02:11.114Z,78.80
2018-05-02T16:04:44.739Z,78.00
2018-05-02T16:07:19.066Z,77.30
2018-05-02T16:09:52.651Z,77.20
2018-05-02T16:12:26.192Z,76.80
2018-05-02T16:14:59.759Z,77.90
2018-05-02T16:17:34.047Z,77.10
2018-05-02T16:20:07.557Z,77.10
2018-05-02T16:22:41.200Z,78.30
2018-05-02T16:25:14.757Z,76.10
2018-05-02T16:27:48.483Z,74.10
2018-05-02T16:30:22.024Z,73.10
2018-05-02T16:32:56.420Z,71.70
2018-05-02T16:35:29.987Z,71.70
2018-05-02T16:38:04.336Z,73.60
2018-05-02T16:40:38.026Z,73.50
2018-05-02T16:43:11.694Z,71.20
2018-05-02T16:45:45.456Z,69.30
2018-05-02T16:48:19.035Z,69.40
2018-05-02T16:50:52.613Z,71.20
2018-05-02T16:53:26.172Z,71.60
2018-05-02T16:55:59.727Z,69.90
2018-05-02T16:58:33.447Z,70.70
2018-05-02T17:01:07.034Z,67.70
2018-05-02T17:03:40.561Z,66.90
2018-05-02T17:06:14.132Z,67.50
2018-05-02T17:08:47.755Z,67.70
2018-05-02T17:11:21.303Z,67.80
2018-05-02T17:13:55.066Z,67.40
2018-05-02T17:16:28.739Z,67.80
2018-05-02T17:19:02.264Z,68.90
2018-05-02T17:21:35.783Z,72.50
2018-05-02T17:24:10.119Z,74.70
2018-05-02T17:26:43.675Z,75.00
2018-05-02T17:29:17.256Z,75.00
2018-05-02T17:31:50.769Z,75.80
2018-05-02T17:34:24.362Z,76.50
2018-05-02T17:36:57.957Z,78.00
2018-05-02T17:39:31.467Z,77.70
2018-05-02T17:42:04.984Z,78.40
2018-05-02T17:44:38.551Z,79.40
2018-05-02T17:47:12.090Z,79.20
2018-05-02T17:49:45.671Z,81.80
2018-05-02T17:52:19.311Z,81.40
2018-05-02T17:54:53.782Z,80.50
2018-05-02T17:57:28.099Z,80.30
2018-05-02T18:00:01.835Z,80.30
2018-05-02T18:02:35.359Z,80.80
2018-05-02T18:05:08.891Z,82.20
2018-05-02T18:07:42.410Z,82.80
2018-05-02T18:10:15.925Z,83.40
2018-05-02T18:12:49.481Z,83.60
2018-05-02T18:15:23.084Z,85.10
2018-05-02T18:17:56.619Z,85.50
2018-05-02T18:20:30.167Z,84.70
2018-05-02T18:23:03.887Z,83.70
2018-05-02T18:25:37.432Z,83.10
2018-05-02T18:28:11.808Z,85.00
2018-05-02T18:30:45.566Z,84.90
2018-05-02T18:33:19.638Z,84.50
2018-05-02T18:35:53.243Z,84.90
2018-05-02T18:38:26.758Z,85.10
2018-05-02T18:41:00.326Z,84.80
2018-05-02T18:43:33.910Z,84.70
2018-05-02T18:46:07.533Z,84.80
2018-05-02T18:48:41.139Z,85.60
2018-05-02T18:51:14.699Z,86.20
2018-05-02T18:53:48.222Z,86.80
2018-05-02T18:56:21.824Z,88.20
2018-05-02T18:58:55.531Z,89.30
2018-05-02T19:01:29.118Z,90.20
2018-05-02T19:04:02.748Z,91.90
2018-05-02T19:06:36.252Z,92.50
2018-05-02T19:09:09.853Z,92.90
2018-05-02T19:11:43.440Z,92.70
2018-05-02T19:14:17.147Z,93.70
2018-05-02T19:16:50.820Z,94.30
2018-05-02T19:19:30.171Z,94.10
2018-05-02T19:22:03.773Z,94.00
2018-05-02T19:24:43.203Z,93.70
2018-05-02T19:27:17.530Z,94.10
2018-05-02T19:29:51.298Z,94.00
2018-05-02T19:32:30.568Z,93.90
2018-05-02T19:35:04.236Z,94.10
2018-05-02T19:37:37.793Z,94.30
2018-05-02T19:40:17.202Z,94.70
2018-05-02T19:42:56.641Z,94.80
2018-05-02T19:45:30.172Z,95.00
2018-05-02T19:48:03.747Z,95.00
2018-05-02T19:50:37.337Z,95.00
2018-05-02T19:53:10.874Z,95.40
2018-05-02T19:55:44.456Z,95.70
2018-05-02T19:58:18.171Z,95.90
2018-05-02T20:00:58.010Z,96.00
2018-05-02T20:03:31.882Z,95.90
2018-05-02T20:06:05.487Z,96.30
2018-05-02T20:08:45.392Z,96.90
2018-05-02T20:11:24.978Z,96.90
2018-05-02T20:14:02.361Z,96.70
2018-05-02T20:16:35.996Z,96.70
2018-05-02T20:19:09.604Z,96.80
2018-05-02T20:21:43.169Z,96.70
2018-05-02T20:24:16.715Z,97.40
2018-05-02T20:26:50.227Z,97.10
2018-05-02T20:29:23.917Z,97.20
2018-05-02T20:31:57.486Z,97.70
2018-05-02T20:34:31.085Z,97.90
2018-05-02T20:37:08.053Z,97.60
2018-05-02T20:39:42.233Z,97.50
2018-05-02T20:42:17.722Z,98.10
2018-05-02T20:44:51.457Z,98.10
2018-05-02T20:47:26.865Z,98.30
2018-05-02T20:50:00.409Z,98.30
2018-05-02T20:52:34.040Z,99.60
2018-05-02T20:55:08.529Z,99.90
2018-05-02T20:57:42.144Z,99.90
2018-05-02T21:00:15.724Z,99.90
2018-05-02T21:02:49.827Z,99.90
2018-05-02T21:05:23.934Z,99.90
2018-05-02T21:07:57.544Z,99.90
2018-05-02T21:10:31.172Z,99.90
2018-05-02T21:13:04.711Z,99.90
2018-05-02T21:15:38.400Z,99.90
2018-05-02T21:18:12.008Z,99.90
2018-05-02T21:20:45.616Z,99.90
2018-05-02T21:23:20.044Z,99.90
2018-05-02T21:25:53.651Z,99.90
2018-05-02T21:28:30.844Z,99.90
2018-05-02T21:31:04.907Z,99.90
2018-05-02T21:33:52.323Z,99.90
2018-05-02T21:36:27.094Z,99.90
2018-05-02T21:39:00.884Z,99.90
2018-05-02T21:41:35.440Z,99.90
2018-05-02T21:44:09.153Z,99.90
2018-05-02T21:46:42.715Z,99.90
2018-05-02T21:49:19.874Z,99.90
2018-05-02T21:51:56.619Z,99.90
2018-05-02T21:54:32.617Z,99.90
2018-05-02T21:57:09.581Z,99.90
2018-05-02T21:59:43.502Z,99.90
2018-05-02T22:02:16.969Z,99.90
2018-05-02T22:04:50.551Z,99.90
2018-05-02T22:07:24.133Z,99.90
2018-05-02T22:09:57.713Z,99.90
2018-05-02T22:12:32.052Z,99.90
2018-05-02T22:15:06.459Z,99.80
2018-05-02T22:17:40.121Z,99.80
2018-05-02T22:20:13.700Z,99.40
2018-05-02T22:22:47.275Z,99.70
2018-05-02T22:25:20.854Z,99.30
2018-05-02T22:27:54.456Z,98.90
2018-05-02T22:30:27.991Z,99.10
2018-05-02T22:33:02.282Z,98.40
2018-05-02T22:35:35.952Z,98.40
2018-05-02T22:38:09.713Z,98.20
2018-05-02T22:40:43.264Z,98.40
2018-05-02T22:43:17.598Z,99.90
2018-05-02T22:45:51.350Z,99.90
2018-05-02T22:48:24.888Z,99.90
2018-05-02T22:50:59.233Z,99.90
2018-05-02T22:53:33.759Z,99.90
2018-05-02T22:56:07.319Z,99.90
2018-05-02T22:58:41.056Z,99.90
2018-05-02T23:01:14.745Z,99.90
2018-05-02T23:03:48.265Z,99.90
2018-05-02T23:06:21.764Z,99.90
2018-05-02T23:08:55.358Z,99.90
2018-05-02T23:11:28.921Z,99.90
2018-05-02T23:14:02.568Z,99.90
2018-05-02T23:16:36.138Z,99.90
2018-05-02T23:19:09.744Z,99.90
2018-05-02T23:21:43.284Z,99.90
2018-05-02T23:24:16.847Z,99.90
2018-05-02T23:26:51.167Z,99.90
2018-05-02T23:29:24.730Z,99.90
2018-05-02T23:31:59.099Z,99.90
2018-05-02T23:34:32.735Z,99.90
2018-05-02T23:37:06.288Z,99.90
2018-05-02T23:39:39.805Z,99.90
2018-05-02T23:42:13.395Z,99.90
2018-05-02T23:44:47.699Z,99.90
2018-05-02T23:47:22.132Z,99.90
2018-05-02T23:49:56.645Z,99.90
2018-05-02T23:52:30.400Z,99.90
2018-05-02T23:55:03.958Z,99.90
2018-05-02T23:57:37.561Z,99.90
